createdAt,value
2022-09-12T00:00:39.288Z,0.00
2022-09-12T00:01:39.379Z,0.00
2022-09-12T00:02:39.273Z,0.00
2022-09-12T00:03:39.264Z,0.00
2022-09-12T00:04:39.281Z,0.00
2022-09-12T00:05:39.255Z,0.00
2022-09-12T00:06:39.238Z,0.00
2022-09-12T00:07:39.234Z,0.00
2022-09-12T00:08:39.232Z,0.00
2022-09-12T00:09:39.242Z,0.00
2022-09-12T00:10:39.208Z,0.00
2022-09-12T00:11:39.201Z,0.00
2022-09-12T00:12:39.197Z,0.00
2022-09-12T00:13:41.729Z,0.00
2022-09-12T00:14:40.207Z,0.00
2022-09-12T00:15:39.175Z,0.00
2022-09-12T00:16:39.240Z,0.00
2022-09-12T00:17:39.160Z,0.00
2022-09-12T00:18:39.177Z,0.00
2022-09-12T00:19:39.151Z,0.00
2022-09-12T00:20:39.141Z,0.00
2022-09-12T00:21:39.124Z,0.00
2022-09-12T00:22:39.120Z,0.00
2022-09-12T00:23:39.134Z,0.00
2022-09-12T00:24:39.110Z,0.00
2022-09-12T00:25:39.094Z,0.00
2022-09-12T00:26:39.085Z,0.00
2022-09-12T00:27:39.082Z,0.00
2022-09-12T00:28:39.094Z,0.00
2022-09-12T00:29:39.062Z,0.00
2022-09-12T00:30:39.052Z,0.00
2022-09-12T00:31:39.082Z,0.00
2022-09-12T00:32:39.044Z,0.00
2022-09-12T00:33:39.060Z,0.00
2022-09-12T00:34:39.018Z,0.00
2022-09-12T00:35:39.016Z,0.00
2022-09-12T00:36:39.008Z,0.00
2022-09-12T00:37:38.999Z,0.00
2022-09-12T00:38:39.021Z,0.00
2022-09-12T00:39:39.126Z,0.00
2022-09-12T00:40:38.978Z,0.00
2022-09-12T00:41:38.967Z,0.00
2022-09-12T00:42:38.964Z,0.00
2022-09-12T00:43:38.976Z,0.00
2022-09-12T00:44:38.943Z,0.00
2022-09-12T00:45:39.038Z,0.00
2022-09-12T00:46:38.935Z,0.00
2022-09-12T00:47:38.923Z,0.00
2022-09-12T00:48:38.942Z,0.00
2022-09-12T00:49:38.906Z,0.00
2022-09-12T00:50:38.898Z,0.00
2022-09-12T00:51:38.892Z,0.00
2022-09-12T00:52:38.882Z,0.00
2022-09-12T00:53:38.900Z,0.00
2022-09-12T00:54:38.864Z,0.00
2022-09-12T00:55:38.862Z,0.00
2022-09-12T00:56:38.855Z,0.00
2022-09-12T00:57:38.847Z,0.00
2022-09-12T00:58:38.864Z,0.00
2022-09-12T00:59:38.830Z,0.00
2022-09-12T01:00:38.825Z,0.00
2022-09-12T01:01:38.938Z,0.00
2022-09-12T01:02:38.836Z,0.00
2022-09-12T01:03:38.810Z,0.00
2022-09-12T01:04:38.802Z,0.00
2022-09-12T01:05:38.782Z,0.00
2022-09-12T01:06:38.774Z,0.00
2022-09-12T01:07:40.209Z,0.00
2022-09-12T01:08:39.765Z,0.00
2022-09-12T01:09:38.764Z,0.00
2022-09-12T01:10:38.757Z,0.00
2022-09-12T01:11:38.737Z,0.00
2022-09-12T01:12:38.767Z,0.00
2022-09-12T01:13:38.747Z,0.00
2022-09-12T01:14:38.722Z,0.00
2022-09-12T01:15:38.705Z,0.00
2022-09-12T01:16:38.770Z,0.00
2022-09-12T01:17:38.736Z,0.00
2022-09-12T01:18:38.676Z,0.00
2022-09-12T01:19:39.679Z,0.00
2022-09-12T01:20:38.672Z,0.00
2022-09-12T01:21:38.657Z,0.00
2022-09-12T01:22:38.683Z,0.00
2022-09-12T01:23:38.647Z,0.00
2022-09-12T01:24:38.639Z,0.00
2022-09-12T01:25:38.628Z,0.00
2022-09-12T01:26:38.615Z,0.00
2022-09-12T01:27:38.650Z,0.00
2022-09-12T01:28:38.605Z,0.00
2022-09-12T01:29:38.604Z,0.00
2022-09-12T01:30:38.591Z,0.00
2022-09-12T01:31:38.588Z,0.00
2022-09-12T01:32:38.580Z,0.00
2022-09-12T01:33:38.595Z,0.00
2022-09-12T01:34:38.563Z,0.00
2022-09-12T01:35:38.548Z,0.00
2022-09-12T01:36:38.544Z,0.00
2022-09-12T01:37:38.531Z,0.00
2022-09-12T01:38:38.553Z,0.00
2022-09-12T01:39:38.588Z,0.00
2022-09-12T01:40:38.513Z,0.00
2022-09-12T01:41:38.500Z,0.00
2022-09-12T01:42:38.503Z,0.00
2022-09-12T01:43:38.517Z,0.00
2022-09-12T01:44:38.483Z,0.00
2022-09-12T01:45:38.504Z,0.00
2022-09-12T01:46:38.467Z,0.00
2022-09-12T01:47:38.453Z,0.00
2022-09-12T01:48:38.480Z,0.00
2022-09-12T01:49:38.438Z,0.00
2022-09-12T01:50:38.440Z,0.00
2022-09-12T01:51:38.426Z,0.00
2022-09-12T01:52:38.406Z,0.00
2022-09-12T01:53:39.436Z,0.00
2022-09-12T01:54:38.405Z,0.00
2022-09-12T01:55:38.389Z,0.00
2022-09-12T01:56:38.389Z,0.00
2022-09-12T01:57:38.370Z,0.00
2022-09-12T01:58:38.392Z,0.00
2022-09-12T01:59:38.356Z,0.00
2022-09-12T02:00:38.346Z,0.00
2022-09-12T02:01:38.349Z,0.00
2022-09-12T02:02:38.332Z,0.00
2022-09-12T02:03:38.369Z,0.00
2022-09-12T02:04:38.318Z,0.00
2022-09-12T02:05:38.305Z,0.00
2022-09-12T02:06:38.310Z,0.00
2022-09-12T02:07:38.297Z,0.00
2022-09-12T02:08:38.324Z,0.00
2022-09-12T02:09:38.276Z,0.00
2022-09-12T02:10:38.272Z,0.00
2022-09-12T02:11:38.266Z,0.00
2022-09-12T02:12:38.256Z,0.00
2022-09-12T02:13:38.276Z,0.00
2022-09-12T02:14:38.241Z,0.00
2022-09-12T02:15:38.239Z,0.00
2022-09-12T02:16:38.249Z,0.00
2022-09-12T02:17:38.216Z,0.00
2022-09-12T02:18:38.235Z,0.00
2022-09-12T02:19:38.205Z,0.00
2022-09-12T02:20:48.077Z,0.00
2022-09-12T02:21:40.188Z,0.00
2022-09-12T02:22:38.177Z,0.00
2022-09-12T02:23:38.199Z,0.00
2022-09-12T02:24:38.162Z,0.00
2022-09-12T02:25:38.154Z,0.00
2022-09-12T02:26:38.144Z,0.00
2022-09-12T02:27:38.137Z,0.00
2022-09-12T02:28:38.158Z,0.00
2022-09-12T02:29:38.120Z,0.00
2022-09-12T02:30:38.171Z,0.00
2022-09-12T02:31:38.103Z,0.00
2022-09-12T02:32:38.107Z,0.00
2022-09-12T02:33:38.117Z,0.00
2022-09-12T02:34:38.082Z,0.00
2022-09-12T02:35:38.071Z,0.00
2022-09-12T02:36:38.081Z,0.00
2022-09-12T02:37:38.062Z,0.00
2022-09-12T02:38:38.077Z,0.00
2022-09-12T02:39:41.090Z,0.00
2022-09-12T02:40:39.050Z,0.00
2022-09-12T02:41:38.033Z,0.00
2022-09-12T02:42:38.108Z,0.00
2022-09-12T02:43:38.036Z,0.00
2022-09-12T02:44:38.002Z,0.00
2022-09-12T02:45:38.038Z,0.00
2022-09-12T02:46:37.991Z,0.00
2022-09-12T02:47:37.976Z,0.00
2022-09-12T02:48:38.003Z,0.00
2022-09-12T02:49:37.969Z,0.00
2022-09-12T02:50:38.004Z,0.00
2022-09-12T02:51:37.946Z,0.00
2022-09-12T02:52:37.941Z,0.00
2022-09-12T02:53:37.988Z,0.00
2022-09-12T02:54:37.957Z,0.00
2022-09-12T02:55:37.931Z,0.00
2022-09-12T02:56:37.908Z,0.00
2022-09-12T02:57:37.908Z,0.00
2022-09-12T02:58:37.922Z,0.00
2022-09-12T02:59:37.886Z,0.00
2022-09-12T03:00:37.867Z,0.00
2022-09-12T03:01:38.872Z,0.00
2022-09-12T03:02:37.864Z,0.00
2022-09-12T03:03:42.707Z,0.00
2022-09-12T03:04:39.846Z,0.00
2022-09-12T03:05:37.842Z,0.00
2022-09-12T03:06:37.837Z,0.00
2022-09-12T03:07:37.830Z,0.00
2022-09-12T03:08:37.840Z,0.00
2022-09-12T03:09:37.807Z,0.00
2022-09-12T03:10:37.795Z,0.00
2022-09-12T03:11:37.789Z,0.00
2022-09-12T03:12:37.786Z,0.00
2022-09-12T03:13:37.812Z,0.00
2022-09-12T03:14:37.769Z,0.00
2022-09-12T03:15:37.757Z,0.00
2022-09-12T03:16:37.798Z,0.00
2022-09-12T03:17:37.737Z,0.00
2022-09-12T03:18:37.757Z,0.00
2022-09-12T03:19:37.730Z,0.00
2022-09-12T03:20:37.718Z,0.00
2022-09-12T03:21:37.709Z,0.00
2022-09-12T03:22:37.703Z,0.00
2022-09-12T03:23:37.723Z,0.00
2022-09-12T03:24:37.688Z,0.00
2022-09-12T03:25:37.681Z,0.00
2022-09-12T03:26:37.719Z,0.00
2022-09-12T03:27:37.666Z,0.00
2022-09-12T03:28:37.682Z,0.00
2022-09-12T03:29:37.649Z,0.00
2022-09-12T03:30:37.680Z,0.00
2022-09-12T03:31:37.633Z,0.00
2022-09-12T03:32:37.624Z,0.00
2022-09-12T03:33:37.646Z,0.00
2022-09-12T03:34:37.613Z,0.00
2022-09-12T03:35:37.604Z,0.00
2022-09-12T03:36:37.597Z,0.00
2022-09-12T03:37:37.589Z,0.00
2022-09-12T03:38:37.600Z,0.00
2022-09-12T03:39:37.608Z,0.00
2022-09-12T03:40:37.566Z,0.00
2022-09-12T03:41:37.554Z,0.00
2022-09-12T03:42:37.553Z,0.00
2022-09-12T03:43:37.565Z,0.00
2022-09-12T03:44:37.530Z,0.00
2022-09-12T03:45:37.628Z,0.00
2022-09-12T03:46:37.516Z,0.00
2022-09-12T03:47:37.509Z,0.00
2022-09-12T03:48:37.524Z,0.00
2022-09-12T03:49:37.491Z,0.00
2022-09-12T03:50:37.482Z,0.00
2022-09-12T03:51:37.471Z,0.00
2022-09-12T03:52:37.464Z,0.00
2022-09-12T03:53:37.459Z,0.00
2022-09-12T03:54:37.473Z,0.00
2022-09-12T03:55:37.438Z,0.00
2022-09-12T03:56:37.434Z,0.00
2022-09-12T03:57:37.424Z,0.00
2022-09-12T03:58:37.415Z,0.00
2022-09-12T03:59:37.439Z,0.00
2022-09-12T04:00:37.398Z,0.00
2022-09-12T04:01:37.392Z,0.00
2022-09-12T04:02:37.379Z,0.00
2022-09-12T04:03:37.375Z,0.00
2022-09-12T04:04:37.395Z,0.00
2022-09-12T04:05:37.360Z,0.00
2022-09-12T04:06:37.350Z,0.00
2022-09-12T04:07:37.345Z,0.00
2022-09-12T04:08:37.342Z,0.00
2022-09-12T04:09:37.351Z,0.00
2022-09-12T04:10:37.315Z,0.00
2022-09-12T04:11:37.307Z,0.00
2022-09-12T04:12:37.300Z,0.00
2022-09-12T04:13:37.292Z,0.00
2022-09-12T04:14:37.310Z,0.00
2022-09-12T04:15:37.277Z,0.00
2022-09-12T04:16:37.302Z,0.00
2022-09-12T04:17:37.259Z,0.00
2022-09-12T04:18:37.257Z,0.00
2022-09-12T04:19:37.269Z,4.00
2022-09-12T04:20:37.239Z,0.00
2022-09-12T04:21:37.230Z,4.00
2022-09-12T04:22:37.225Z,4.00
2022-09-12T04:23:37.216Z,0.00
2022-09-12T04:24:37.256Z,4.00
2022-09-12T04:25:37.196Z,4.00
2022-09-12T04:26:37.188Z,0.00
2022-09-12T04:27:37.181Z,4.00
2022-09-12T04:28:37.175Z,8.00
2022-09-12T04:29:37.190Z,4.00
2022-09-12T04:30:37.247Z,8.00
2022-09-12T04:31:37.154Z,4.00
2022-09-12T04:32:37.153Z,8.00
2022-09-12T04:33:37.138Z,8.00
2022-09-12T04:34:37.154Z,12.00
2022-09-12T04:35:37.113Z,12.00
2022-09-12T04:36:38.112Z,16.00
2022-09-12T04:37:37.104Z,20.00
2022-09-12T04:38:37.096Z,20.00
2022-09-12T04:39:37.471Z,24.00
2022-09-12T04:40:37.083Z,24.00
2022-09-12T04:41:37.074Z,32.00
2022-09-12T04:42:37.069Z,36.00
2022-09-12T04:43:37.056Z,40.00
2022-09-12T04:44:37.076Z,44.00
2022-09-12T04:45:37.092Z,52.00
2022-09-12T04:46:37.039Z,60.00
2022-09-12T04:47:37.027Z,64.00
2022-09-12T04:48:37.037Z,76.00
2022-09-12T04:49:37.039Z,84.00
2022-09-12T04:50:37.002Z,92.00
2022-09-12T04:51:36.995Z,100.00
2022-09-12T04:52:36.990Z,108.00
2022-09-12T04:53:36.982Z,120.00
2022-09-12T04:54:36.996Z,136.00
2022-09-12T04:55:36.964Z,144.00
2022-09-12T04:56:36.967Z,156.00
2022-09-12T04:57:36.966Z,168.00
2022-09-12T04:58:36.942Z,176.00
2022-09-12T04:59:36.959Z,188.00
2022-09-12T05:00:36.923Z,204.00
2022-09-12T05:01:37.000Z,220.00
2022-09-12T05:02:36.937Z,236.00
2022-09-12T05:03:36.898Z,252.00
2022-09-12T05:04:36.915Z,272.00
2022-09-12T05:05:36.882Z,292.00
2022-09-12T05:06:36.875Z,308.00
2022-09-12T05:07:36.865Z,320.00
2022-09-12T05:08:36.848Z,344.00
2022-09-12T05:09:37.877Z,360.00
2022-09-12T05:10:36.843Z,368.00
2022-09-12T05:12:02.520Z,384.00
2022-09-12T05:12:38.830Z,400.00
2022-09-12T05:13:36.823Z,420.00
2022-09-12T05:14:36.838Z,436.00
2022-09-12T05:15:36.806Z,460.00
2022-09-12T05:16:36.842Z,476.00
2022-09-12T05:17:36.795Z,496.00
2022-09-12T05:18:36.845Z,508.00
2022-09-12T05:19:36.800Z,516.00
2022-09-12T05:20:37.766Z,524.00
2022-09-12T05:21:36.761Z,536.00
2022-09-12T05:22:36.749Z,552.00
2022-09-12T05:23:36.743Z,580.00
2022-09-12T05:24:36.760Z,620.00
2022-09-12T05:25:36.728Z,660.00
2022-09-12T05:26:36.720Z,696.00
2022-09-12T05:27:36.713Z,740.00
2022-09-12T05:28:36.705Z,784.00
2022-09-12T05:29:36.719Z,824.00
2022-09-12T05:30:36.711Z,824.00
2022-09-12T05:31:36.684Z,832.00
2022-09-12T05:32:36.672Z,844.00
2022-09-12T05:33:36.663Z,880.00
2022-09-12T05:34:36.688Z,908.00
2022-09-12T05:35:36.648Z,912.00
2022-09-12T05:36:36.641Z,940.00
2022-09-12T05:37:36.633Z,964.00
2022-09-12T05:38:36.624Z,980.00
2022-09-12T05:39:36.638Z,1000.00
2022-09-12T05:40:36.608Z,1032.00
2022-09-12T05:41:36.605Z,1076.00
2022-09-12T05:42:36.595Z,1116.00
2022-09-12T05:43:36.588Z,1136.00
2022-09-12T05:44:36.606Z,1164.00
2022-09-12T05:45:36.597Z,1168.00
2022-09-12T05:46:36.566Z,1200.00
2022-09-12T05:47:36.556Z,1236.00
2022-09-12T05:48:36.553Z,1264.00
2022-09-12T05:49:36.565Z,1300.00
2022-09-12T05:50:36.533Z,1312.00
2022-09-12T05:51:36.568Z,1320.00
2022-09-12T05:52:36.519Z,1352.00
2022-09-12T05:53:36.508Z,1448.00
2022-09-12T05:54:36.525Z,1492.00
2022-09-12T05:55:36.490Z,1500.00
2022-09-12T05:56:36.480Z,1516.00
2022-09-12T05:57:36.490Z,1572.00
2022-09-12T05:58:36.470Z,1652.00
2022-09-12T05:59:36.487Z,1708.00
2022-09-12T06:00:36.453Z,1772.00
2022-09-12T06:01:36.490Z,1808.00
2022-09-12T06:02:36.485Z,1864.00
2022-09-12T06:03:36.426Z,1976.00
2022-09-12T06:04:36.416Z,2068.00
2022-09-12T06:05:36.434Z,2192.00
2022-09-12T06:06:36.402Z,2424.00
2022-09-12T06:07:36.391Z,2440.00
2022-09-12T06:08:36.384Z,2532.00
2022-09-12T06:09:36.375Z,2548.00
2022-09-12T06:10:36.391Z,2540.00
2022-09-12T06:11:36.360Z,2552.00
2022-09-12T06:12:36.354Z,2624.00
2022-09-12T06:13:36.346Z,2692.00
2022-09-12T06:14:36.338Z,2740.00
2022-09-12T06:15:36.354Z,2796.00
2022-09-12T06:16:36.382Z,2840.00
2022-09-12T06:17:36.315Z,2872.00
2022-09-12T06:18:36.306Z,2892.00
2022-09-12T06:19:36.295Z,2984.00
2022-09-12T06:20:36.316Z,3044.00
2022-09-12T06:21:36.281Z,3056.00
2022-09-12T06:22:36.305Z,3036.00
2022-09-12T06:23:36.268Z,3044.00
2022-09-12T06:24:36.256Z,3052.00
2022-09-12T06:25:36.273Z,3024.00
2022-09-12T06:26:36.240Z,2996.00
2022-09-12T06:27:36.254Z,2972.00
2022-09-12T06:28:36.225Z,2956.00
2022-09-12T06:29:36.218Z,2964.00
2022-09-12T06:30:36.259Z,2996.00
2022-09-12T06:31:36.201Z,3076.00
2022-09-12T06:32:36.199Z,3208.00
2022-09-12T06:33:36.188Z,3320.00
2022-09-12T06:34:36.904Z,3404.00
2022-09-12T06:35:36.200Z,3428.00
2022-09-12T06:36:36.171Z,3496.00
2022-09-12T06:37:36.176Z,3544.00
2022-09-12T06:38:36.190Z,3600.00
2022-09-12T06:39:36.143Z,3664.00
2022-09-12T06:40:36.162Z,3700.00
2022-09-12T06:41:38.463Z,3744.00
2022-09-12T06:42:37.113Z,3844.00
2022-09-12T06:43:36.106Z,3992.00
2022-09-12T06:44:36.093Z,4128.00
2022-09-12T06:45:37.198Z,4244.00
2022-09-12T06:46:36.085Z,4356.00
2022-09-12T06:47:36.078Z,4484.00
2022-09-12T06:48:40.997Z,4624.00
2022-09-12T06:49:38.055Z,4788.00
2022-09-12T06:50:37.081Z,4892.00
2022-09-12T06:51:36.048Z,4904.00
2022-09-12T06:52:36.039Z,4936.00
2022-09-12T06:53:36.025Z,5060.00
2022-09-12T06:54:36.021Z,5164.00
2022-09-12T06:55:36.036Z,5220.00
2022-09-12T06:56:36.006Z,5280.00
2022-09-12T06:57:35.996Z,5460.00
2022-09-12T06:58:36.048Z,5484.00
2022-09-12T06:59:35.980Z,5532.00
2022-09-12T07:00:35.996Z,5584.00
2022-09-12T07:01:36.024Z,5612.00
2022-09-12T07:02:35.989Z,5820.00
2022-09-12T07:03:35.946Z,5944.00
2022-09-12T07:04:35.941Z,6128.00
2022-09-12T07:05:35.963Z,6152.00
2022-09-12T07:06:35.935Z,6012.00
2022-09-12T07:07:35.917Z,6020.00
2022-09-12T07:08:35.915Z,6196.00
2022-09-12T07:09:35.917Z,6328.00
2022-09-12T07:10:35.919Z,6480.00
2022-09-12T07:11:35.888Z,6728.00
2022-09-12T07:12:35.882Z,6996.00
2022-09-12T07:13:35.869Z,7260.00
2022-09-12T07:14:35.860Z,7584.00
2022-09-12T07:15:35.876Z,7844.00
2022-09-12T07:16:35.937Z,7912.00
2022-09-12T07:17:35.834Z,7860.00
2022-09-12T07:18:35.829Z,7936.00
2022-09-12T07:19:35.821Z,7928.00
2022-09-12T07:20:35.834Z,7888.00
2022-09-12T07:21:35.805Z,7728.00
2022-09-12T07:22:35.792Z,7616.00
2022-09-12T07:23:35.809Z,7716.00
2022-09-12T07:24:35.778Z,7936.00
2022-09-12T07:25:35.793Z,7868.00
2022-09-12T07:26:35.761Z,8032.00
2022-09-12T07:27:35.752Z,8152.00
2022-09-12T07:28:35.743Z,8004.00
2022-09-12T07:29:37.507Z,8176.00
2022-09-12T07:30:36.768Z,8116.00
2022-09-12T07:31:35.715Z,8108.00
2022-09-12T07:32:35.715Z,7852.00
2022-09-12T07:33:35.735Z,7872.00
2022-09-12T07:34:35.695Z,7948.00
2022-09-12T07:35:35.718Z,8080.00
2022-09-12T07:36:35.682Z,8164.00
2022-09-12T07:37:35.671Z,8264.00
2022-09-12T07:38:35.679Z,8348.00
2022-09-12T07:39:35.650Z,8340.00
2022-09-12T07:40:35.672Z,8392.00
2022-09-12T07:41:35.638Z,8736.00
2022-09-12T07:42:35.629Z,8840.00
2022-09-12T07:43:35.658Z,8800.00
2022-09-12T07:44:35.646Z,9052.00
2022-09-12T07:45:35.676Z,9152.00
2022-09-12T07:46:35.597Z,9372.00
2022-09-12T07:47:35.698Z,9300.00
2022-09-12T07:48:35.580Z,9184.00
2022-09-12T07:49:35.577Z,9192.00
2022-09-12T07:50:35.593Z,9156.00
2022-09-12T07:51:35.556Z,9212.00
2022-09-12T07:52:35.551Z,8860.00
2022-09-12T07:53:35.594Z,8524.00
2022-09-12T07:54:35.586Z,7860.00
2022-09-12T07:55:35.530Z,7884.00
2022-09-12T07:56:38.942Z,7852.00
2022-09-12T07:57:36.516Z,6928.00
2022-09-12T07:58:35.505Z,6972.00
2022-09-12T07:59:52.010Z,7124.00
2022-09-12T08:00:37.488Z,7364.00
2022-09-12T08:01:35.585Z,7588.00
2022-09-12T08:02:35.498Z,7596.00
2022-09-12T08:03:35.565Z,7740.00
2022-09-12T08:04:35.459Z,7888.00
2022-09-12T08:05:35.450Z,8220.00
2022-09-12T08:06:35.512Z,8288.00
2022-09-12T08:07:35.601Z,8028.00
2022-09-12T08:08:35.635Z,8224.00
2022-09-12T08:09:35.531Z,7880.00
2022-09-12T08:10:35.406Z,7600.00
2022-09-12T08:11:35.424Z,7092.00
2022-09-12T08:12:35.393Z,6752.00
2022-09-12T08:13:35.432Z,6664.00
2022-09-12T08:14:35.371Z,5952.00
2022-09-12T08:15:35.405Z,6448.00
2022-09-12T08:16:35.380Z,6500.00
2022-09-12T08:17:35.348Z,6888.00
2022-09-12T08:18:35.343Z,6964.00
2022-09-12T08:19:35.335Z,7304.00
2022-09-12T08:20:35.329Z,7656.00
2022-09-12T08:21:35.358Z,7852.00
2022-09-12T08:22:35.312Z,8152.00
2022-09-12T08:23:35.355Z,8408.00
2022-09-12T08:24:35.294Z,8332.00
2022-09-12T08:25:35.279Z,8492.00
2022-09-12T08:26:36.304Z,8568.00
2022-09-12T08:27:35.287Z,8652.00
2022-09-12T08:28:35.398Z,8896.00
2022-09-12T08:29:35.257Z,9212.00
2022-09-12T08:30:35.272Z,9544.00
2022-09-12T08:31:35.263Z,9588.00
2022-09-12T08:32:35.231Z,9672.00
2022-09-12T08:33:35.253Z,10220.00
2022-09-12T08:34:35.212Z,10936.00
2022-09-12T08:35:35.227Z,12128.00
2022-09-12T08:36:35.223Z,13508.00
2022-09-12T08:37:35.196Z,14252.00
2022-09-12T08:38:35.183Z,14104.00
2022-09-12T08:39:35.182Z,14764.00
2022-09-12T08:40:35.168Z,15324.00
2022-09-12T08:41:35.212Z,14552.00
2022-09-12T08:42:35.151Z,14000.00
2022-09-12T08:43:35.183Z,14276.00
2022-09-12T08:44:35.134Z,14656.00
2022-09-12T08:45:35.193Z,15080.00
2022-09-12T08:46:35.152Z,14800.00
2022-09-12T08:47:35.113Z,15164.00
2022-09-12T08:48:35.104Z,15188.00
2022-09-12T08:49:35.098Z,15408.00
2022-09-12T08:50:35.094Z,16352.00
2022-09-12T08:51:35.098Z,17024.00
2022-09-12T08:52:35.081Z,17664.00
2022-09-12T08:53:35.086Z,17792.00
2022-09-12T08:54:35.053Z,18464.00
2022-09-12T08:55:35.057Z,19072.00
2022-09-12T08:56:35.081Z,20832.00
2022-09-12T08:57:35.031Z,21856.00
2022-09-12T08:58:35.027Z,22080.00
2022-09-12T08:59:35.015Z,21600.00
2022-09-12T09:00:35.007Z,20736.00
2022-09-12T09:01:35.070Z,20832.00
2022-09-12T09:02:35.058Z,20896.00
2022-09-12T09:03:35.014Z,20480.00
2022-09-12T09:04:34.983Z,20608.00
2022-09-12T09:05:34.969Z,23424.00
2022-09-12T09:06:34.983Z,24096.00
2022-09-12T09:07:34.957Z,23424.00
2022-09-12T09:08:34.950Z,24928.00
2022-09-12T09:09:34.953Z,25152.00
2022-09-12T09:10:34.934Z,25184.00
2022-09-12T09:11:34.957Z,24128.00
2022-09-12T09:12:34.929Z,19648.00
2022-09-12T09:13:34.923Z,23648.00
2022-09-12T09:14:34.903Z,23616.00
2022-09-12T09:15:34.920Z,23552.00
2022-09-12T09:16:34.922Z,20672.00
2022-09-12T09:17:34.880Z,18624.00
2022-09-12T09:18:34.873Z,17920.00
2022-09-12T09:19:34.861Z,18176.00
2022-09-12T09:20:34.851Z,17856.00
2022-09-12T09:21:34.876Z,18208.00
2022-09-12T09:22:36.178Z,18912.00
2022-09-12T09:23:34.829Z,19648.00
2022-09-12T09:24:34.841Z,19264.00
2022-09-12T09:25:34.812Z,18464.00
2022-09-12T09:26:35.960Z,18240.00
2022-09-12T09:27:40.805Z,17984.00
2022-09-12T09:28:36.791Z,17632.00
2022-09-12T09:29:34.779Z,16960.00
2022-09-12T09:30:34.775Z,17248.00
2022-09-12T09:31:34.793Z,17024.00
2022-09-12T09:32:34.761Z,16016.00
2022-09-12T09:33:34.749Z,15800.00
2022-09-12T09:34:34.747Z,15520.00
2022-09-12T09:35:36.719Z,15276.00
2022-09-12T09:36:35.751Z,15464.00
2022-09-12T09:37:34.722Z,15492.00
2022-09-12T09:38:34.796Z,15372.00
2022-09-12T09:39:34.701Z,15020.00
2022-09-12T09:40:34.704Z,15072.00
2022-09-12T09:41:34.720Z,14868.00
2022-09-12T09:42:34.686Z,14956.00
2022-09-12T09:43:34.675Z,14252.00
2022-09-12T09:44:34.710Z,15032.00
2022-09-12T09:45:34.659Z,14924.00
2022-09-12T09:46:34.729Z,14912.00
2022-09-12T09:47:34.644Z,14812.00
2022-09-12T09:48:34.633Z,14552.00
2022-09-12T09:49:34.627Z,14312.00
2022-09-12T09:50:34.618Z,13832.00
2022-09-12T09:51:34.647Z,13628.00
2022-09-12T09:52:34.629Z,13396.00
2022-09-12T09:53:34.596Z,13324.00
2022-09-12T09:54:34.605Z,13020.00
2022-09-12T09:55:34.583Z,12860.00
2022-09-12T09:56:34.605Z,12756.00
2022-09-12T09:57:34.578Z,12456.00
2022-09-12T09:58:34.605Z,12500.00
2022-09-12T09:59:34.565Z,12468.00
2022-09-12T10:00:34.548Z,12188.00
2022-09-12T10:01:34.578Z,12148.00
2022-09-12T10:02:34.624Z,12212.00
2022-09-12T10:03:34.539Z,12100.00
2022-09-12T10:04:37.986Z,12324.00
2022-09-12T10:05:36.502Z,12436.00
2022-09-12T10:06:34.557Z,12628.00
2022-09-12T10:07:34.521Z,12544.00
2022-09-12T10:08:34.493Z,12468.00
2022-09-12T10:09:34.488Z,12460.00
2022-09-12T10:10:34.476Z,12504.00
2022-09-12T10:11:34.466Z,12564.00
2022-09-12T10:12:34.482Z,12612.00
2022-09-12T10:13:34.447Z,12652.00
2022-09-12T10:14:34.443Z,12700.00
2022-09-12T10:15:34.462Z,12772.00
2022-09-12T10:16:34.432Z,12912.00
2022-09-12T10:17:34.799Z,13072.00
2022-09-12T10:18:35.404Z,13152.00
2022-09-12T10:19:34.396Z,13188.00
2022-09-12T10:20:34.392Z,13328.00
2022-09-12T10:21:34.414Z,13044.00
2022-09-12T10:22:34.401Z,13004.00
2022-09-12T10:23:34.384Z,13004.00
2022-09-12T10:24:34.379Z,12988.00
2022-09-12T10:25:34.357Z,12948.00
2022-09-12T10:26:34.392Z,12860.00
2022-09-12T10:27:34.387Z,12832.00
2022-09-12T10:28:34.334Z,12832.00
2022-09-12T10:29:34.332Z,12852.00
2022-09-12T10:30:34.421Z,12852.00
2022-09-12T10:31:34.312Z,12840.00
2022-09-12T10:32:34.331Z,12852.00
2022-09-12T10:33:34.293Z,12792.00
2022-09-12T10:34:34.290Z,12732.00
2022-09-12T10:35:34.286Z,12704.00
2022-09-12T10:36:34.282Z,12680.00
2022-09-12T10:37:34.294Z,12688.00
2022-09-12T10:38:34.259Z,12700.00
2022-09-12T10:39:34.250Z,12760.00
2022-09-12T10:40:34.248Z,12960.00
2022-09-12T10:41:34.237Z,13096.00
2022-09-12T10:42:34.260Z,13160.00
2022-09-12T10:43:34.222Z,13248.00
2022-09-12T10:44:34.221Z,13192.00
2022-09-12T10:45:34.208Z,13220.00
2022-09-12T10:46:34.195Z,13252.00
2022-09-12T10:47:35.225Z,13240.00
2022-09-12T10:48:34.176Z,13184.00
2022-09-12T10:49:34.173Z,13140.00
2022-09-12T10:50:34.170Z,13144.00
2022-09-12T10:51:34.163Z,13172.00
2022-09-12T10:52:34.187Z,13164.00
2022-09-12T10:53:34.815Z,13136.00
2022-09-12T10:54:35.134Z,13120.00
2022-09-12T10:55:34.135Z,13080.00
2022-09-12T10:56:34.129Z,13044.00
2022-09-12T10:57:34.149Z,13072.00
2022-09-12T10:58:34.193Z,12992.00
2022-09-12T10:59:34.097Z,12976.00
2022-09-12T11:00:34.093Z,12988.00
2022-09-12T11:01:34.169Z,12980.00
2022-09-12T11:02:34.118Z,12908.00
2022-09-12T11:03:34.072Z,12856.00
2022-09-12T11:04:34.095Z,12756.00
2022-09-12T11:05:34.098Z,12620.00
2022-09-12T11:06:34.050Z,12532.00
2022-09-12T11:07:34.038Z,12364.00
2022-09-12T11:08:34.057Z,12216.00
2022-09-12T11:09:34.027Z,12268.00
2022-09-12T11:10:37.352Z,12096.00
2022-09-12T11:11:35.045Z,11932.00
2022-09-12T11:12:34.010Z,11804.00
2022-09-12T11:13:34.024Z,11804.00
2022-09-12T11:14:33.991Z,11772.00
2022-09-12T11:15:34.052Z,11788.00
2022-09-12T11:16:33.976Z,11688.00
2022-09-12T11:17:33.963Z,11800.00
2022-09-12T11:18:33.983Z,11844.00
2022-09-12T11:19:33.948Z,11848.00
2022-09-12T11:20:33.939Z,11716.00
2022-09-12T11:21:33.935Z,11576.00
2022-09-12T11:22:33.921Z,11696.00
2022-09-12T11:23:33.937Z,11744.00
2022-09-12T11:24:33.912Z,11852.00
2022-09-12T11:25:33.907Z,11836.00
2022-09-12T11:26:33.894Z,11732.00
2022-09-12T11:27:33.888Z,11540.00
2022-09-12T11:28:33.905Z,11416.00
2022-09-12T11:29:33.868Z,11452.00
2022-09-12T11:30:33.904Z,11292.00
2022-09-12T11:31:33.855Z,11096.00
2022-09-12T11:32:33.870Z,11164.00
2022-09-12T11:33:33.875Z,11012.00
2022-09-12T11:34:33.835Z,10972.00
2022-09-12T11:35:33.824Z,10848.00
2022-09-12T11:36:33.824Z,10908.00
2022-09-12T11:37:33.817Z,10980.00
2022-09-12T11:38:33.825Z,10984.00
2022-09-12T11:39:33.804Z,10912.00
2022-09-12T11:40:33.848Z,10856.00
2022-09-12T11:41:33.781Z,10772.00
2022-09-12T11:42:33.869Z,10824.00
2022-09-12T11:43:33.795Z,10780.00
2022-09-12T11:44:33.752Z,10808.00
2022-09-12T11:45:33.746Z,10856.00
2022-09-12T11:46:33.735Z,10816.00
2022-09-12T11:47:33.736Z,10800.00
2022-09-12T11:48:33.758Z,10760.00
2022-09-12T11:49:35.745Z,10776.00
2022-09-12T11:50:34.706Z,10740.00
2022-09-12T11:51:33.701Z,10640.00
2022-09-12T11:52:33.699Z,10604.00
2022-09-12T11:53:33.711Z,10596.00
2022-09-12T11:54:33.724Z,10564.00
2022-09-12T11:55:33.668Z,10624.00
2022-09-12T11:56:33.662Z,10704.00
2022-09-12T11:57:33.657Z,10744.00
2022-09-12T11:58:33.702Z,10816.00
2022-09-12T11:59:33.670Z,10888.00
2022-09-12T12:00:33.634Z,10984.00
2022-09-12T12:01:37.415Z,11128.00
2022-09-12T12:02:34.656Z,11220.00
2022-09-12T12:03:34.138Z,11252.00
2022-09-12T12:04:33.613Z,11284.00
2022-09-12T12:05:33.595Z,11300.00
2022-09-12T12:06:33.587Z,11316.00
2022-09-12T12:07:33.577Z,11368.00
2022-09-12T12:08:33.606Z,11452.00
2022-09-12T12:09:33.586Z,11504.00
2022-09-12T12:10:33.563Z,11544.00
2022-09-12T12:11:33.555Z,11592.00
2022-09-12T12:12:33.549Z,11660.00
2022-09-12T12:13:33.570Z,11704.00
2022-09-12T12:14:33.583Z,11724.00
2022-09-12T12:15:33.567Z,11692.00
2022-09-12T12:16:33.525Z,11644.00
2022-09-12T12:17:33.509Z,11556.00
2022-09-12T12:18:33.529Z,11492.00
2022-09-12T12:19:33.494Z,11552.00
2022-09-12T12:20:33.489Z,11580.00
2022-09-12T12:21:33.473Z,11648.00
2022-09-12T12:22:33.466Z,11768.00
2022-09-12T12:23:33.492Z,11924.00
2022-09-12T12:24:33.455Z,12036.00
2022-09-12T12:25:33.447Z,12276.00
2022-09-12T12:26:33.444Z,12660.00